createdAt,value
2019-03-10T00:01:35.252Z,22.07
2019-03-10T00:04:04.840Z,17.17
2019-03-10T00:06:34.420Z,17.13
2019-03-10T00:09:05.534Z,19.80
2019-03-10T00:11:36.040Z,19.53
2019-03-10T00:14:05.672Z,20.33
2019-03-10T00:16:35.228Z,17.90
2019-03-10T00:19:04.664Z,18.60
2019-03-10T00:21:34.163Z,17.50
2019-03-10T00:24:03.640Z,24.47
2019-03-10T00:26:33.351Z,17.20
2019-03-10T00:29:02.975Z,21.23
2019-03-10T00:31:32.935Z,31.20
2019-03-10T00:34:02.385Z,18.20
2019-03-10T00:36:32.042Z,17.20
2019-03-10T00:39:10.498Z,30.37
2019-03-10T00:41:48.974Z,25.20
2019-03-10T00:44:38.113Z,16.53
2019-03-10T00:47:43.971Z,17.87
2019-03-10T00:50:33.165Z,24.60
2019-03-10T00:53:03.025Z,16.30
2019-03-10T00:55:32.712Z,16.73
2019-03-10T00:58:02.352Z,18.43
2019-03-10T01:00:31.855Z,18.00
2019-03-10T01:03:01.583Z,17.90
2019-03-10T01:05:31.221Z,18.10
2019-03-10T01:08:00.908Z,18.43
2019-03-10T01:10:30.830Z,17.93
2019-03-10T01:13:00.766Z,18.90
2019-03-10T01:15:31.437Z,18.00
2019-03-10T01:18:02.040Z,16.47
2019-03-10T01:20:32.072Z,16.53
2019-03-10T01:23:01.575Z,17.50
2019-03-10T01:25:31.512Z,18.63
2019-03-10T01:28:00.975Z,17.27
2019-03-10T01:30:33.681Z,15.60
2019-03-10T01:33:30.707Z,14.00
2019-03-10T01:36:00.663Z,14.40
2019-03-10T01:38:30.388Z,16.50
2019-03-10T01:41:00.190Z,20.03
2019-03-10T01:43:29.623Z,16.47
2019-03-10T01:45:59.059Z,19.47
2019-03-10T01:48:28.546Z,16.77
2019-03-10T01:50:58.407Z,16.00
2019-03-10T01:53:27.848Z,15.73
2019-03-10T01:55:57.799Z,15.90
2019-03-10T01:58:28.823Z,18.67
2019-03-10T02:00:58.556Z,14.43
2019-03-10T02:03:28.159Z,19.50
2019-03-10T02:05:57.598Z,15.50
2019-03-10T02:08:27.313Z,20.03
2019-03-10T02:10:56.781Z,16.80
2019-03-10T02:13:26.256Z,17.60
2019-03-10T02:15:55.761Z,16.37
2019-03-10T02:18:25.488Z,15.57
2019-03-10T02:20:54.991Z,58.10
2019-03-10T02:23:24.759Z,18.43
2019-03-10T02:25:54.878Z,19.13
2019-03-10T02:28:24.322Z,15.80
2019-03-10T02:31:05.647Z,14.47
2019-03-10T02:33:35.157Z,14.23
2019-03-10T02:36:04.799Z,14.70
2019-03-10T02:38:34.650Z,14.77
2019-03-10T02:41:04.515Z,15.20
2019-03-10T02:43:34.025Z,13.70
2019-03-10T02:46:03.595Z,15.57
2019-03-10T02:48:33.173Z,14.43
2019-03-10T02:51:02.841Z,14.00
2019-03-10T02:53:32.657Z,15.50
2019-03-10T02:56:02.464Z,20.77
2019-03-10T02:58:31.960Z,15.23
2019-03-10T03:01:01.653Z,15.10
2019-03-10T03:03:31.190Z,15.07
2019-03-10T03:06:01.030Z,14.17
2019-03-10T03:08:30.828Z,16.27
2019-03-10T03:11:00.268Z,25.87
2019-03-10T03:13:29.781Z,15.07
2019-03-10T03:15:59.394Z,16.17
2019-03-10T03:18:28.950Z,15.00
2019-03-10T03:20:58.504Z,15.37
2019-03-10T03:23:28.248Z,16.10
2019-03-10T03:25:58.030Z,14.63
2019-03-10T03:28:27.872Z,15.60
2019-03-10T03:30:57.404Z,16.10
2019-03-10T03:33:27.193Z,16.80
2019-03-10T03:36:02.691Z,14.13
2019-03-10T03:38:35.283Z,14.53
2019-03-10T03:41:16.669Z,13.87
2019-03-10T03:43:46.288Z,13.97
2019-03-10T03:46:15.787Z,13.67
2019-03-10T03:48:45.325Z,13.70
2019-03-10T03:51:14.862Z,14.40
2019-03-10T03:53:44.363Z,13.63
2019-03-10T03:56:13.972Z,13.57
2019-03-10T03:58:43.498Z,13.80
2019-03-10T04:01:17.741Z,13.50
2019-03-10T04:03:47.740Z,13.20
2019-03-10T04:06:17.553Z,13.60
2019-03-10T04:08:47.415Z,13.30
2019-03-10T04:11:16.966Z,13.50
2019-03-10T04:13:46.478Z,14.13
2019-03-10T04:16:15.912Z,13.53
2019-03-10T04:18:45.376Z,13.17
2019-03-10T04:21:14.875Z,12.80
2019-03-10T04:23:44.440Z,13.97
2019-03-10T04:26:14.118Z,13.40
2019-03-10T04:28:43.619Z,13.13
2019-03-10T04:31:13.203Z,14.17
2019-03-10T04:33:42.735Z,13.80
2019-03-10T04:36:12.574Z,13.50
2019-03-10T04:38:42.045Z,13.27
2019-03-10T04:41:11.724Z,13.83
2019-03-10T04:43:41.303Z,13.80
2019-03-10T04:46:10.765Z,14.33
2019-03-10T04:48:40.682Z,13.80
2019-03-10T04:51:10.183Z,13.47
2019-03-10T04:53:39.625Z,15.90
2019-03-10T04:56:13.827Z,13.63
2019-03-10T04:58:47.507Z,15.63
2019-03-10T05:01:17.267Z,14.70
2019-03-10T05:03:46.927Z,13.23
2019-03-10T05:06:16.375Z,13.00
2019-03-10T05:08:45.928Z,13.30
2019-03-10T05:11:15.556Z,12.90
2019-03-10T05:13:45.036Z,14.50
2019-03-10T05:16:14.547Z,14.10
2019-03-10T05:18:44.031Z,13.87
2019-03-10T05:21:13.463Z,16.27
2019-03-10T05:23:43.151Z,13.77
2019-03-10T05:26:13.144Z,13.80
2019-03-10T05:28:44.490Z,14.30
2019-03-10T05:31:14.127Z,13.17
2019-03-10T05:33:43.658Z,13.83
2019-03-10T05:36:13.097Z,13.00
2019-03-10T05:38:42.751Z,13.47
2019-03-10T05:41:12.219Z,13.23
2019-03-10T05:43:41.731Z,13.50
2019-03-10T05:46:11.164Z,13.90
2019-03-10T05:48:40.675Z,13.73
2019-03-10T05:51:10.106Z,13.90
2019-03-10T05:53:39.811Z,13.50
2019-03-10T05:56:09.341Z,13.57
2019-03-10T05:58:38.801Z,13.17
2019-03-10T06:01:08.231Z,13.70
2019-03-10T06:03:37.695Z,15.40
2019-03-10T06:06:07.129Z,14.50
2019-03-10T06:08:36.715Z,13.50
2019-03-10T06:11:06.604Z,13.63
2019-03-10T06:13:36.238Z,12.00
2019-03-10T06:16:05.676Z,13.27
2019-03-10T06:18:35.143Z,13.40
2019-03-10T06:21:04.646Z,14.17
2019-03-10T06:23:34.075Z,12.23
2019-03-10T06:26:03.565Z,13.53
2019-03-10T06:28:33.004Z,12.43
2019-03-10T06:31:02.579Z,12.67
2019-03-10T06:33:34.059Z,12.37
2019-03-10T06:36:03.584Z,13.43
2019-03-10T06:38:33.416Z,14.07
2019-03-10T06:41:03.135Z,12.93
2019-03-10T06:43:32.568Z,12.50
2019-03-10T06:46:02.342Z,12.53
2019-03-10T06:48:32.156Z,12.00
2019-03-10T06:51:01.900Z,12.70
2019-03-10T06:53:32.191Z,13.47
2019-03-10T06:56:02.111Z,12.77
2019-03-10T06:58:31.819Z,11.40
2019-03-10T07:01:01.260Z,12.83
2019-03-10T07:03:30.731Z,12.70
2019-03-10T07:06:00.159Z,12.20
2019-03-10T07:08:29.595Z,12.60
2019-03-10T07:10:59.130Z,11.77
2019-03-10T07:13:28.576Z,13.40
2019-03-10T07:15:58.281Z,12.23
2019-03-10T07:18:27.921Z,13.60
2019-03-10T07:20:57.860Z,14.07
2019-03-10T07:23:27.474Z,13.13
2019-03-10T07:26:01.605Z,12.77
2019-03-10T07:28:32.952Z,12.77
2019-03-10T07:31:04.028Z,12.60
2019-03-10T07:33:41.523Z,12.67
2019-03-10T07:36:24.739Z,12.90
2019-03-10T07:38:59.136Z,12.87
2019-03-10T07:41:46.087Z,12.53
2019-03-10T07:44:17.504Z,12.07
2019-03-10T07:46:51.598Z,13.27
2019-03-10T07:49:28.688Z,12.97
2019-03-10T07:51:59.767Z,13.07
2019-03-10T07:54:39.833Z,12.73
2019-03-10T07:57:23.188Z,14.43
2019-03-10T08:00:09.940Z,12.70
2019-03-10T08:02:41.087Z,12.60
2019-03-10T08:05:21.532Z,13.17
2019-03-10T08:07:58.513Z,12.30
2019-03-10T08:10:35.812Z,13.40
2019-03-10T08:13:23.094Z,14.10
2019-03-10T08:16:09.254Z,13.07
2019-03-10T08:18:40.403Z,12.73
2019-03-10T08:21:17.923Z,12.50
2019-03-10T08:24:05.011Z,13.17
2019-03-10T08:26:45.348Z,12.57
2019-03-10T08:29:28.226Z,12.60
2019-03-10T08:31:59.335Z,12.20
2019-03-10T08:34:39.531Z,12.43
2019-03-10T08:37:11.116Z,12.83
2019-03-10T08:39:58.956Z,12.53
2019-03-10T08:42:33.102Z,13.10
2019-03-10T08:45:06.952Z,13.37
2019-03-10T08:47:44.627Z,12.50
2019-03-10T08:50:28.337Z,13.30
2019-03-10T08:52:59.764Z,14.03
2019-03-10T08:55:46.971Z,29.47
2019-03-10T08:58:20.750Z,13.17
2019-03-10T09:01:10.116Z,13.40
2019-03-10T09:03:52.784Z,11.97
2019-03-10T09:06:23.858Z,11.27
2019-03-10T09:09:09.970Z,11.73
2019-03-10T09:11:57.540Z,3.70
2019-03-10T09:14:45.079Z,5.77
2019-03-10T09:17:18.955Z,6.30
2019-03-10T09:19:50.019Z,6.80
2019-03-10T09:22:23.867Z,11.30
2019-03-10T09:25:05.083Z,11.77
2019-03-10T09:27:39.632Z,12.47
2019-03-10T09:30:28.903Z,12.53
2019-03-10T09:33:02.737Z,12.63
2019-03-10T09:35:33.915Z,12.43
2019-03-10T09:38:16.816Z,12.70
2019-03-10T09:40:59.633Z,13.80
2019-03-10T09:43:42.059Z,13.07
2019-03-10T09:46:15.948Z,12.77
2019-03-10T09:49:03.560Z,13.33
2019-03-10T09:51:40.676Z,13.10
2019-03-10T09:54:14.524Z,14.17
2019-03-10T09:56:48.465Z,13.53
2019-03-10T09:59:19.790Z,13.60
2019-03-10T10:02:00.001Z,13.43
2019-03-10T10:04:43.347Z,14.10
2019-03-10T10:07:26.839Z,14.60
2019-03-10T10:09:58.555Z,14.27
2019-03-10T10:12:35.581Z,13.87
2019-03-10T10:15:26.152Z,14.47
2019-03-10T10:17:59.778Z,15.20
2019-03-10T10:20:43.069Z,15.17
2019-03-10T10:23:14.449Z,16.20
2019-03-10T10:25:45.838Z,16.03
2019-03-10T10:28:23.153Z,16.53
2019-03-10T10:31:00.539Z,15.43
2019-03-10T10:33:48.422Z,14.70
2019-03-10T10:36:30.476Z,14.97
2019-03-10T10:39:09.634Z,15.57
2019-03-10T10:41:57.381Z,16.07
2019-03-10T10:44:28.868Z,15.03
2019-03-10T10:47:09.437Z,15.93
2019-03-10T10:49:49.964Z,15.53
2019-03-10T10:52:28.109Z,12.47
2019-03-10T10:55:02.058Z,13.03
2019-03-10T10:57:45.752Z,12.80
2019-03-10T11:00:19.208Z,1.07
2019-03-10T11:03:06.598Z,6.83
2019-03-10T11:05:38.231Z,1.27
2019-03-10T11:08:09.295Z,1.20
2019-03-10T11:10:56.928Z,1.10
2019-03-10T11:13:36.684Z,1.50
2019-03-10T11:16:10.755Z,3.00
2019-03-10T11:18:50.923Z,12.67
2019-03-10T11:21:31.048Z,12.27
2019-03-10T11:24:14.070Z,49.77
2019-03-10T11:26:48.199Z,50.00
2019-03-10T11:29:19.290Z,51.83
2019-03-10T11:31:53.208Z,53.97
2019-03-10T11:34:27.427Z,50.80
2019-03-10T11:37:10.957Z,14.30
2019-03-10T11:39:51.295Z,17.70
2019-03-10T11:42:25.169Z,16.80
2019-03-10T11:45:09.176Z,18.70
2019-03-10T11:47:43.200Z,16.60
2019-03-10T11:50:17.499Z,16.10
2019-03-10T11:52:51.616Z,16.03
2019-03-10T11:55:39.307Z,17.27
2019-03-10T11:58:25.979Z,15.47
2019-03-10T12:00:57.199Z,15.53
2019-03-10T12:03:44.435Z,14.53
2019-03-10T12:06:18.312Z,15.23
2019-03-10T12:09:01.738Z,15.03
2019-03-10T12:11:31.636Z,14.00
2019-03-10T12:14:01.090Z,15.73
2019-03-10T12:16:31.300Z,56.33
2019-03-10T12:19:01.167Z,101.83
2019-03-10T12:21:30.612Z,185.83
2019-03-10T12:24:00.085Z,239.30
2019-03-10T12:26:30.019Z,301.07
2019-03-10T12:28:59.471Z,146.63
2019-03-10T12:31:28.916Z,231.10
2019-03-10T12:33:59.025Z,305.40
2019-03-10T12:36:28.511Z,359.13
2019-03-10T12:38:58.398Z,380.67
2019-03-10T12:41:27.967Z,367.27
2019-03-10T12:43:57.488Z,337.37
2019-03-10T12:46:27.361Z,357.77
2019-03-10T12:48:56.957Z,357.17
2019-03-10T12:51:26.864Z,312.77
2019-03-10T12:53:56.315Z,298.37
2019-03-10T12:56:25.872Z,270.27
2019-03-10T12:58:55.476Z,314.80
2019-03-10T13:01:25.004Z,420.70
2019-03-10T13:03:58.895Z,44.13
2019-03-10T13:06:25.754Z,19.47
2019-03-10T13:08:56.375Z,25.43
2019-03-10T13:11:25.845Z,12.17
2019-03-10T13:13:55.347Z,33.77
2019-03-10T13:16:24.849Z,1.63
2019-03-10T13:18:54.347Z,2.17
2019-03-10T13:21:25.997Z,7.50
2019-03-10T13:23:57.582Z,12.00
2019-03-10T13:26:27.186Z,15.23
2019-03-10T13:28:56.753Z,23.60
2019-03-10T13:31:27.275Z,23.43
2019-03-10T13:33:56.914Z,28.47
2019-03-10T13:36:26.347Z,30.40
2019-03-10T13:38:56.122Z,32.60
2019-03-10T13:41:25.614Z,36.30
2019-03-10T13:43:55.403Z,45.53
2019-03-10T13:46:24.854Z,59.90
2019-03-10T13:48:54.634Z,81.53
2019-03-10T13:51:24.080Z,92.07
2019-03-10T13:53:53.520Z,134.83
2019-03-10T13:56:23.283Z,130.70
2019-03-10T13:58:52.719Z,53.80
2019-03-10T14:01:22.291Z,52.20
2019-03-10T14:03:51.912Z,71.63
2019-03-10T14:06:21.413Z,86.53
2019-03-10T14:08:51.181Z,122.33
2019-03-10T14:11:21.088Z,133.53
2019-03-10T14:13:50.813Z,116.67
2019-03-10T14:16:20.583Z,22.30
2019-03-10T14:18:50.244Z,12.70
2019-03-10T14:21:19.829Z,13.70
2019-03-10T14:23:49.281Z,13.97
2019-03-10T14:26:19.216Z,15.20
2019-03-10T14:28:48.651Z,14.57
2019-03-10T14:31:18.091Z,14.87
2019-03-10T14:33:47.696Z,15.17
2019-03-10T14:36:18.808Z,14.70
2019-03-10T14:38:48.242Z,15.07
2019-03-10T14:41:18.413Z,14.93
2019-03-10T14:43:48.145Z,18.80
2019-03-10T14:46:18.084Z,290.90
2019-03-10T14:48:48.135Z,323.60
2019-03-10T14:51:17.955Z,307.87
2019-03-10T14:53:47.601Z,311.77
2019-03-10T14:56:17.106Z,312.87
2019-03-10T14:58:46.644Z,301.97
2019-03-10T15:01:17.376Z,342.43
2019-03-10T15:03:46.947Z,318.43
2019-03-10T15:06:16.399Z,276.33
2019-03-10T15:08:46.994Z,335.50
2019-03-10T15:11:16.627Z,318.17
2019-03-10T15:13:46.316Z,262.20
2019-03-10T15:16:15.931Z,173.27
2019-03-10T15:18:45.399Z,195.67
2019-03-10T15:21:15.208Z,237.73
2019-03-10T15:23:44.956Z,302.60
2019-03-10T15:26:14.644Z,306.63
2019-03-10T15:28:44.650Z,306.27
2019-03-10T15:31:14.572Z,296.73
2019-03-10T15:33:44.737Z,298.90
2019-03-10T15:36:20.536Z,288.40
2019-03-10T15:38:48.319Z,286.13
2019-03-10T15:41:18.727Z,270.23
2019-03-10T15:43:48.628Z,116.70
2019-03-10T15:46:18.123Z,19.50
2019-03-10T15:48:47.683Z,18.83
2019-03-10T15:51:17.624Z,19.77
2019-03-10T15:53:51.767Z,17.90
2019-03-10T15:56:21.280Z,18.33
2019-03-10T15:58:50.721Z,18.40
2019-03-10T16:01:20.534Z,18.40
2019-03-10T16:03:50.132Z,17.20
2019-03-10T16:06:19.615Z,18.50
2019-03-10T16:08:50.133Z,18.30
2019-03-10T16:11:19.646Z,18.40
2019-03-10T16:13:49.678Z,17.60
2019-03-10T16:16:19.219Z,17.97
2019-03-10T16:18:50.961Z,18.17
2019-03-10T16:21:19.931Z,18.57
2019-03-10T16:23:50.060Z,21.53
2019-03-10T16:26:19.575Z,19.13
2019-03-10T16:28:49.083Z,17.90
2019-03-10T16:31:19.211Z,22.00
2019-03-10T16:33:48.906Z,17.87
2019-03-10T16:36:18.474Z,17.60
2019-03-10T16:38:48.200Z,17.90
2019-03-10T16:41:19.654Z,17.60
2019-03-10T16:43:49.059Z,18.03
2019-03-10T16:46:19.053Z,18.23
2019-03-10T16:48:48.827Z,17.87
2019-03-10T16:51:18.411Z,18.87
2019-03-10T16:53:47.956Z,21.53
2019-03-10T16:56:19.023Z,17.73
2019-03-10T16:58:48.463Z,18.63
2019-03-10T17:01:18.179Z,18.17
2019-03-10T17:03:47.831Z,17.87
2019-03-10T17:06:17.338Z,19.20
2019-03-10T17:08:46.887Z,18.13
2019-03-10T17:11:16.391Z,18.70
2019-03-10T17:13:45.899Z,18.50
2019-03-10T17:16:16.439Z,18.77
2019-03-10T17:18:46.270Z,19.90
2019-03-10T17:21:15.900Z,19.37
2019-03-10T17:23:45.624Z,19.40
2019-03-10T17:26:15.067Z,20.33
2019-03-10T17:28:44.932Z,18.90
2019-03-10T17:31:14.667Z,19.40
2019-03-10T17:33:44.172Z,18.90
2019-03-10T17:36:13.679Z,19.60
2019-03-10T17:38:43.392Z,20.00
2019-03-10T17:41:12.890Z,20.13
2019-03-10T17:43:42.400Z,20.00
2019-03-10T17:46:12.107Z,19.10
2019-03-10T17:48:41.864Z,18.60
2019-03-10T17:51:11.373Z,18.37
2019-03-10T17:53:42.180Z,18.97
2019-03-10T17:56:11.759Z,18.93
2019-03-10T17:58:41.209Z,18.83
2019-03-10T18:01:10.836Z,18.67
2019-03-10T18:03:40.371Z,18.90
2019-03-10T18:06:09.879Z,18.80
2019-03-10T18:08:39.355Z,19.27
2019-03-10T18:11:09.135Z,19.10
2019-03-10T18:13:38.574Z,18.17
2019-03-10T18:16:08.204Z,19.00
2019-03-10T18:18:37.635Z,19.60
2019-03-10T18:21:07.468Z,18.53
2019-03-10T18:23:37.641Z,21.57
2019-03-10T18:26:07.548Z,17.83
2019-03-10T18:28:37.424Z,18.50
2019-03-10T18:31:07.226Z,18.80
2019-03-10T18:33:36.672Z,18.33
2019-03-10T18:36:06.273Z,19.37
2019-03-10T18:38:35.907Z,18.63
2019-03-10T18:41:05.727Z,18.87
2019-03-10T18:43:35.400Z,19.10
2019-03-10T18:46:05.051Z,18.30
2019-03-10T18:48:34.793Z,19.10
2019-03-10T18:51:04.402Z,18.43
2019-03-10T18:53:34.320Z,19.27
2019-03-10T18:56:04.593Z,18.97
2019-03-10T18:58:34.348Z,19.17
2019-03-10T19:01:05.048Z,19.60
2019-03-10T19:03:34.653Z,19.60
2019-03-10T19:06:04.291Z,18.63
2019-03-10T19:08:33.751Z,269.77
2019-03-10T19:11:03.191Z,138.33
2019-03-10T19:13:32.619Z,12.43
2019-03-10T19:16:02.419Z,9.00
2019-03-10T19:18:31.903Z,7.40
2019-03-10T19:21:01.391Z,2.17
2019-03-10T19:23:31.656Z,4.77
2019-03-10T19:26:01.426Z,20.30
2019-03-10T19:28:30.991Z,6.93
2019-03-10T19:31:00.660Z,7.10
2019-03-10T19:33:30.108Z,8.33
2019-03-10T19:35:59.595Z,9.33
2019-03-10T19:38:29.416Z,10.87
2019-03-10T19:40:59.224Z,11.10
2019-03-10T19:43:28.807Z,11.10
2019-03-10T19:45:58.698Z,11.07
2019-03-10T19:48:28.132Z,11.90
2019-03-10T19:50:57.737Z,12.43
2019-03-10T19:53:27.499Z,13.00
2019-03-10T19:55:57.000Z,15.57
2019-03-10T19:58:26.666Z,16.73
2019-03-10T20:00:56.495Z,19.57
2019-03-10T20:03:25.919Z,22.10
2019-03-10T20:05:55.364Z,25.37
2019-03-10T20:08:24.878Z,27.90
2019-03-10T20:10:54.311Z,32.53
2019-03-10T20:13:23.739Z,36.03
2019-03-10T20:15:53.303Z,41.80
2019-03-10T20:18:22.739Z,46.30
2019-03-10T20:20:52.172Z,51.17
2019-03-10T20:23:21.708Z,54.80
2019-03-10T20:25:51.408Z,54.97
2019-03-10T20:28:20.835Z,57.43
2019-03-10T20:30:51.075Z,55.87
2019-03-10T20:33:20.515Z,60.67
2019-03-10T20:35:50.219Z,60.73
2019-03-10T20:38:19.678Z,61.83
2019-03-10T20:40:49.179Z,61.63
2019-03-10T20:43:18.605Z,73.30
2019-03-10T20:45:48.066Z,75.20
2019-03-10T20:48:17.572Z,67.53
2019-03-10T20:50:47.532Z,68.60
2019-03-10T20:53:17.754Z,61.17
2019-03-10T20:55:47.427Z,55.17
2019-03-10T20:58:17.684Z,58.80
2019-03-10T21:00:47.816Z,62.30
2019-03-10T21:03:17.248Z,70.33
2019-03-10T21:05:46.750Z,64.00
2019-03-10T21:08:16.276Z,90.13
2019-03-10T21:10:45.708Z,84.97
2019-03-10T21:13:15.854Z,137.07
2019-03-10T21:15:45.820Z,123.13
2019-03-10T21:18:15.992Z,111.33
2019-03-10T21:20:45.426Z,93.83
2019-03-10T21:23:14.971Z,70.80
2019-03-10T21:25:44.706Z,86.43
2019-03-10T21:28:14.418Z,64.93
2019-03-10T21:30:43.878Z,59.17
2019-03-10T21:33:13.384Z,52.70
2019-03-10T21:35:42.956Z,25.60
2019-03-10T21:38:12.600Z,13.10
2019-03-10T21:40:42.095Z,9.33
2019-03-10T21:43:12.095Z,9.20
2019-03-10T21:45:41.548Z,9.67
2019-03-10T21:48:11.040Z,9.50
2019-03-10T21:50:40.467Z,10.03
2019-03-10T21:53:10.296Z,10.90
2019-03-10T21:55:39.723Z,10.03
2019-03-10T21:58:09.362Z,11.10
2019-03-10T22:00:39.334Z,11.90
2019-03-10T22:03:08.828Z,11.37
2019-03-10T22:05:39.664Z,12.67
2019-03-10T22:08:09.579Z,11.73
2019-03-10T22:10:39.007Z,12.17
2019-03-10T22:13:08.539Z,12.93
2019-03-10T22:15:41.878Z,12.20
2019-03-10T22:18:09.336Z,12.80
2019-03-10T22:20:38.835Z,11.00
2019-03-10T22:23:08.667Z,11.63
2019-03-10T22:25:38.099Z,8.30
2019-03-10T22:28:07.655Z,4.77
2019-03-10T22:30:37.383Z,5.00
2019-03-10T22:33:07.136Z,4.37
2019-03-10T22:35:36.558Z,4.13
2019-03-10T22:38:06.621Z,6.03
2019-03-10T22:40:36.174Z,4.20
2019-03-10T22:43:05.866Z,5.70
2019-03-10T22:45:35.451Z,7.40
2019-03-10T22:48:05.075Z,8.50
2019-03-10T22:50:34.487Z,9.80
2019-03-10T22:53:04.151Z,10.57
2019-03-10T22:55:33.663Z,11.90
2019-03-10T22:58:03.430Z,13.10
2019-03-10T23:00:34.720Z,12.30
2019-03-10T23:03:04.900Z,12.93
2019-03-10T23:05:34.708Z,12.80
2019-03-10T23:08:04.636Z,13.53
2019-03-10T23:10:34.157Z,13.73
2019-03-10T23:13:03.881Z,13.67
2019-03-10T23:15:33.608Z,14.20
2019-03-10T23:18:03.519Z,13.00
2019-03-10T23:20:34.302Z,13.17
2019-03-10T23:23:04.179Z,12.70
2019-03-10T23:25:33.633Z,12.90
2019-03-10T23:28:03.929Z,13.57
2019-03-10T23:30:34.657Z,14.10
2019-03-10T23:33:04.668Z,7.40
2019-03-10T23:35:34.308Z,4.03
2019-03-10T23:38:04.586Z,30.27
2019-03-10T23:40:34.055Z,2.10
2019-03-10T23:43:03.636Z,5.13
2019-03-10T23:45:33.083Z,2.93
2019-03-10T23:48:02.513Z,1.67
2019-03-10T23:50:31.978Z,1.50
2019-03-10T23:53:01.570Z,0.87
2019-03-10T23:55:31.058Z,1.40
2019-03-10T23:58:00.781Z,2.30
